sensor_id;sensor_type;location;lat;lon;timestamp;P1;durP1;ratioP1;P2;durP2;ratioP2
5612;SDS011;63463;53.586;9.928;2023-04-29T00:02:19;27.70;;;13.90;;
5612;SDS011;63463;53.586;9.928;2023-04-29T00:04:45;22.33;;;13.20;;
5612;SDS011;63463;53.586;9.928;2023-04-29T00:07:11;24.80;;;13.80;;
5612;SDS011;63463;53.586;9.928;2023-04-29T00:09:40;25.90;;;13.80;;
5612;SDS011;63463;53.586;9.928;2023-04-29T00:12:06;24.20;;;14.27;;
5612;SDS011;63463;53.586;9.928;2023-04-29T00:14:33;23.40;;;13.57;;
5612;SDS011;63463;53.586;9.928;2023-04-29T00:16:59;23.57;;;14.30;;
5612;SDS011;63463;53.586;9.928;2023-04-29T00:19:25;22.70;;;14.37;;
5612;SDS011;63463;53.586;9.928;2023-04-29T00:21:52;24.07;;;13.73;;
5612;SDS011;63463;53.586;9.928;2023-04-29T00:24:18;22.70;;;13.60;;
5612;SDS011;63463;53.586;9.928;2023-04-29T00:26:45;24.27;;;13.33;;
5612;SDS011;63463;53.586;9.928;2023-04-29T00:29:12;26.97;;;15.13;;
5612;SDS011;63463;53.586;9.928;2023-04-29T00:31:38;21.33;;;13.70;;
5612;SDS011;63463;53.586;9.928;2023-04-29T00:34:04;23.53;;;13.77;;
5612;SDS011;63463;53.586;9.928;2023-04-29T00:36:30;23.67;;;13.97;;
5612;SDS011;63463;53.586;9.928;2023-04-29T00:38:57;20.40;;;13.80;;
5612;SDS011;63463;53.586;9.928;2023-04-29T00:41:23;22.93;;;14.13;;
5612;SDS011;63463;53.586;9.928;2023-04-29T00:43:50;21.03;;;13.67;;
5612;SDS011;63463;53.586;9.928;2023-04-29T00:46:16;26.47;;;14.80;;
5612;SDS011;63463;53.586;9.928;2023-04-29T00:48:43;24.63;;;14.77;;
5612;SDS011;63463;53.586;9.928;2023-04-29T00:51:12;26.97;;;14.50;;
5612;SDS011;63463;53.586;9.928;2023-04-29T00:53:38;27.40;;;13.97;;
5612;SDS011;63463;53.586;9.928;2023-04-29T00:56:05;33.90;;;15.50;;
5612;SDS011;63463;53.586;9.928;2023-04-29T00:58:32;21.67;;;13.60;;
5612;SDS011;63463;53.586;9.928;2023-04-29T01:01:02;25.37;;;13.87;;
5612;SDS011;63463;53.586;9.928;2023-04-29T01:03:28;28.03;;;13.60;;
5612;SDS011;63463;53.586;9.928;2023-04-29T01:08:39;24.80;;;13.90;;
5612;SDS011;63463;53.586;9.928;2023-04-29T01:11:09;25.67;;;13.87;;
5612;SDS011;63463;53.586;9.928;2023-04-29T01:13:42;29.23;;;13.63;;
5612;SDS011;63463;53.586;9.928;2023-04-29T01:16:12;23.27;;;13.70;;
5612;SDS011;63463;53.586;9.928;2023-04-29T01:18:44;24.30;;;13.40;;
5612;SDS011;63463;53.586;9.928;2023-04-29T01:21:10;22.07;;;13.20;;
5612;SDS011;63463;53.586;9.928;2023-04-29T01:23:36;22.77;;;13.33;;
5612;SDS011;63463;53.586;9.928;2023-04-29T01:26:02;21.53;;;13.90;;
5612;SDS011;63463;53.586;9.928;2023-04-29T01:28:39;30.33;;;15.03;;
5612;SDS011;63463;53.586;9.928;2023-04-29T01:31:10;24.10;;;13.10;;
5612;SDS011;63463;53.586;9.928;2023-04-29T01:39:08;21.17;;;13.47;;
5612;SDS011;63463;53.586;9.928;2023-04-29T01:41:44;25.67;;;15.50;;
5612;SDS011;63463;53.586;9.928;2023-04-29T01:44:14;32.93;;;16.10;;
5612;SDS011;63463;53.586;9.928;2023-04-29T01:46:42;23.80;;;14.97;;
5612;SDS011;63463;53.586;9.928;2023-04-29T01:49:08;21.30;;;14.20;;
5612;SDS011;63463;53.586;9.928;2023-04-29T01:51:35;28.50;;;13.83;;
5612;SDS011;63463;53.586;9.928;2023-04-29T01:54:01;21.80;;;13.43;;
5612;SDS011;63463;53.586;9.928;2023-04-29T01:56:29;23.30;;;14.30;;
5612;SDS011;63463;53.586;9.928;2023-04-29T01:58:55;24.20;;;14.20;;
5612;SDS011;63463;53.586;9.928;2023-04-29T02:01:21;28.20;;;15.17;;
5612;SDS011;63463;53.586;9.928;2023-04-29T02:03:47;20.77;;;13.40;;
5612;SDS011;63463;53.586;9.928;2023-04-29T02:06:13;26.37;;;14.13;;
5612;SDS011;63463;53.586;9.928;2023-04-29T02:08:39;28.43;;;14.50;;
5612;SDS011;63463;53.586;9.928;2023-04-29T02:11:05;26.10;;;15.00;;
5612;SDS011;63463;53.586;9.928;2023-04-29T02:13:31;23.73;;;14.00;;
5612;SDS011;63463;53.586;9.928;2023-04-29T02:15:57;26.20;;;15.17;;
5612;SDS011;63463;53.586;9.928;2023-04-29T02:18:34;25.40;;;15.83;;
5612;SDS011;63463;53.586;9.928;2023-04-29T02:21:00;36.63;;;15.50;;
5612;SDS011;63463;53.586;9.928;2023-04-29T02:23:26;29.67;;;16.73;;
5612;SDS011;63463;53.586;9.928;2023-04-29T02:25:53;28.40;;;16.97;;
5612;SDS011;63463;53.586;9.928;2023-04-29T02:28:23;37.47;;;17.53;;
5612;SDS011;63463;53.586;9.928;2023-04-29T02:30:49;27.87;;;15.97;;
5612;SDS011;63463;53.586;9.928;2023-04-29T02:33:15;28.40;;;16.57;;
5612;SDS011;63463;53.586;9.928;2023-04-29T02:35:43;28.30;;;15.73;;
5612;SDS011;63463;53.586;9.928;2023-04-29T02:38:09;32.03;;;17.07;;
5612;SDS011;63463;53.586;9.928;2023-04-29T02:40:45;33.30;;;16.97;;
5612;SDS011;63463;53.586;9.928;2023-04-29T02:43:11;26.40;;;16.63;;
5612;SDS011;63463;53.586;9.928;2023-04-29T02:45:38;34.43;;;18.17;;
5612;SDS011;63463;53.586;9.928;2023-04-29T02:48:04;29.23;;;15.90;;
5612;SDS011;63463;53.586;9.928;2023-04-29T02:50:30;30.07;;;15.17;;
5612;SDS011;63463;53.586;9.928;2023-04-29T02:52:57;26.63;;;15.37;;
5612;SDS011;63463;53.586;9.928;2023-04-29T02:55:23;33.87;;;15.90;;
5612;SDS011;63463;53.586;9.928;2023-04-29T02:57:49;32.10;;;15.87;;
5612;SDS011;63463;53.586;9.928;2023-04-29T03:00:15;24.40;;;14.83;;
5612;SDS011;63463;53.586;9.928;2023-04-29T03:02:41;23.57;;;15.33;;
5612;SDS011;63463;53.586;9.928;2023-04-29T03:05:07;29.80;;;15.83;;
5612;SDS011;63463;53.586;9.928;2023-04-29T03:07:33;31.30;;;15.60;;
5612;SDS011;63463;53.586;9.928;2023-04-29T03:09:59;35.07;;;16.80;;
5612;SDS011;63463;53.586;9.928;2023-04-29T03:12:25;26.47;;;16.00;;
5612;SDS011;63463;53.586;9.928;2023-04-29T03:14:51;27.63;;;16.10;;
5612;SDS011;63463;53.586;9.928;2023-04-29T03:17:17;24.10;;;15.13;;
5612;SDS011;63463;53.586;9.928;2023-04-29T03:19:43;24.90;;;15.53;;
5612;SDS011;63463;53.586;9.928;2023-04-29T03:22:09;29.13;;;15.93;;
5612;SDS011;63463;53.586;9.928;2023-04-29T03:24:36;25.87;;;16.17;;
5612;SDS011;63463;53.586;9.928;2023-04-29T03:27:02;29.37;;;16.63;;
5612;SDS011;63463;53.586;9.928;2023-04-29T03:29:28;32.70;;;15.33;;
5612;SDS011;63463;53.586;9.928;2023-04-29T03:31:55;26.30;;;15.80;;
5612;SDS011;63463;53.586;9.928;2023-04-29T03:34:21;30.00;;;15.80;;
5612;SDS011;63463;53.586;9.928;2023-04-29T03:36:48;26.93;;;14.70;;
5612;SDS011;63463;53.586;9.928;2023-04-29T03:39:15;26.63;;;15.30;;
5612;SDS011;63463;53.586;9.928;2023-04-29T03:41:41;24.60;;;14.30;;
5612;SDS011;63463;53.586;9.928;2023-04-29T03:44:07;28.47;;;15.93;;
5612;SDS011;63463;53.586;9.928;2023-04-29T03:46:33;28.20;;;15.70;;
5612;SDS011;63463;53.586;9.928;2023-04-29T03:48:59;36.40;;;15.93;;
5612;SDS011;63463;53.586;9.928;2023-04-29T03:51:25;32.87;;;17.03;;
5612;SDS011;63463;53.586;9.928;2023-04-29T03:53:52;29.93;;;15.37;;
5612;SDS011;63463;53.586;9.928;2023-04-29T03:56:20;26.47;;;15.40;;
5612;SDS011;63463;53.586;9.928;2023-04-29T03:58:47;31.70;;;15.47;;
5612;SDS011;63463;53.586;9.928;2023-04-29T04:01:13;31.20;;;15.60;;
5612;SDS011;63463;53.586;9.928;2023-04-29T04:03:39;28.17;;;15.47;;
5612;SDS011;63463;53.586;9.928;2023-04-29T04:06:07;29.50;;;16.27;;
5612;SDS011;63463;53.586;9.928;2023-04-29T04:08:33;28.50;;;15.97;;
5612;SDS011;63463;53.586;9.928;2023-04-29T04:10:59;32.37;;;15.73;;
5612;SDS011;63463;53.586;9.928;2023-04-29T04:13:28;29.90;;;17.37;;
5612;SDS011;63463;53.586;9.928;2023-04-29T04:15:54;28.53;;;14.87;;
5612;SDS011;63463;53.586;9.928;2023-04-29T04:18:20;25.27;;;14.57;;
5612;SDS011;63463;53.586;9.928;2023-04-29T04:20:46;53.70;;;15.93;;
5612;SDS011;63463;53.586;9.928;2023-04-29T04:23:13;27.60;;;14.23;;
5612;SDS011;63463;53.586;9.928;2023-04-29T04:25:45;24.63;;;14.70;;
5612;SDS011;63463;53.586;9.928;2023-04-29T04:28:11;22.77;;;14.37;;
5612;SDS011;63463;53.586;9.928;2023-04-29T04:30:37;27.70;;;14.53;;
5612;SDS011;63463;53.586;9.928;2023-04-29T04:33:03;31.73;;;16.07;;
5612;SDS011;63463;53.586;9.928;2023-04-29T04:35:30;26.67;;;15.20;;
5612;SDS011;63463;53.586;9.928;2023-04-29T04:37:56;21.37;;;14.50;;
5612;SDS011;63463;53.586;9.928;2023-04-29T04:40:22;24.37;;;14.77;;
5612;SDS011;63463;53.586;9.928;2023-04-29T04:42:48;22.63;;;14.37;;
5612;SDS011;63463;53.586;9.928;2023-04-29T04:45:14;23.37;;;15.17;;
5612;SDS011;63463;53.586;9.928;2023-04-29T04:47:41;34.10;;;16.00;;
5612;SDS011;63463;53.586;9.928;2023-04-29T04:50:07;33.63;;;15.90;;
5612;SDS011;63463;53.586;9.928;2023-04-29T04:52:33;25.17;;;14.87;;
5612;SDS011;63463;53.586;9.928;2023-04-29T04:55:00;26.77;;;15.80;;
5612;SDS011;63463;53.586;9.928;2023-04-29T04:57:26;28.73;;;15.27;;
5612;SDS011;63463;53.586;9.928;2023-04-29T04:59:52;30.60;;;16.47;;
5612;SDS011;63463;53.586;9.928;2023-04-29T05:02:18;26.77;;;15.97;;
5612;SDS011;63463;53.586;9.928;2023-04-29T05:04:44;25.03;;;14.23;;
5612;SDS011;63463;53.586;9.928;2023-04-29T05:07:10;27.33;;;15.47;;
5612;SDS011;63463;53.586;9.928;2023-04-29T05:09:36;25.33;;;15.63;;
5612;SDS011;63463;53.586;9.928;2023-04-29T05:12:02;31.07;;;15.27;;
5612;SDS011;63463;53.586;9.928;2023-04-29T05:14:28;24.20;;;14.20;;
5612;SDS011;63463;53.586;9.928;2023-04-29T05:16:58;29.93;;;15.60;;
5612;SDS011;63463;53.586;9.928;2023-04-29T05:19:24;32.17;;;16.30;;
5612;SDS011;63463;53.586;9.928;2023-04-29T05:21:50;24.30;;;15.27;;
5612;SDS011;63463;53.586;9.928;2023-04-29T05:24:17;27.70;;;14.40;;
5612;SDS011;63463;53.586;9.928;2023-04-29T05:26:43;26.23;;;14.60;;
5612;SDS011;63463;53.586;9.928;2023-04-29T05:29:09;26.97;;;14.13;;
5612;SDS011;63463;53.586;9.928;2023-04-29T05:31:35;41.37;;;16.40;;
5612;SDS011;63463;53.586;9.928;2023-04-29T05:34:03;29.23;;;13.80;;
5612;SDS011;63463;53.586;9.928;2023-04-29T05:36:29;25.90;;;14.77;;
5612;SDS011;63463;53.586;9.928;2023-04-29T05:38:55;28.13;;;14.20;;
5612;SDS011;63463;53.586;9.928;2023-04-29T05:41:21;23.80;;;14.03;;
5612;SDS011;63463;53.586;9.928;2023-04-29T05:43:49;31.07;;;14.07;;
5612;SDS011;63463;53.586;9.928;2023-04-29T05:46:15;26.63;;;14.40;;
5612;SDS011;63463;53.586;9.928;2023-04-29T05:48:41;21.57;;;13.10;;
5612;SDS011;63463;53.586;9.928;2023-04-29T05:51:07;27.80;;;13.77;;
5612;SDS011;63463;53.586;9.928;2023-04-29T05:53:33;39.67;;;14.77;;
5612;SDS011;63463;53.586;9.928;2023-04-29T05:56:02;24.80;;;12.70;;
5612;SDS011;63463;53.586;9.928;2023-04-29T05:58:32;18.03;;;12.60;;
5612;SDS011;63463;53.586;9.928;2023-04-29T06:00:58;20.27;;;13.10;;
5612;SDS011;63463;53.586;9.928;2023-04-29T06:03:26;26.20;;;12.53;;
5612;SDS011;63463;53.586;9.928;2023-04-29T06:05:52;22.07;;;13.33;;
5612;SDS011;63463;53.586;9.928;2023-04-29T06:08:18;26.83;;;13.73;;
5612;SDS011;63463;53.586;9.928;2023-04-29T06:10:44;21.87;;;11.93;;
5612;SDS011;63463;53.586;9.928;2023-04-29T06:13:11;20.80;;;12.37;;
5612;SDS011;63463;53.586;9.928;2023-04-29T06:15:38;19.43;;;12.27;;
5612;SDS011;63463;53.586;9.928;2023-04-29T06:18:04;21.07;;;12.57;;
5612;SDS011;63463;53.586;9.928;2023-04-29T06:20:30;26.57;;;12.10;;
5612;SDS011;63463;53.586;9.928;2023-04-29T06:22:56;22.10;;;12.43;;
5612;SDS011;63463;53.586;9.928;2023-04-29T06:25:22;20.80;;;11.53;;
5612;SDS011;63463;53.586;9.928;2023-04-29T06:27:48;18.37;;;11.97;;
5612;SDS011;63463;53.586;9.928;2023-04-29T06:30:15;19.90;;;12.00;;
5612;SDS011;63463;53.586;9.928;2023-04-29T06:32:41;24.63;;;11.60;;
5612;SDS011;63463;53.586;9.928;2023-04-29T06:35:07;18.77;;;11.00;;
5612;SDS011;63463;53.586;9.928;2023-04-29T06:37:34;21.30;;;10.60;;
5612;SDS011;63463;53.586;9.928;2023-04-29T06:40:01;30.60;;;11.77;;
5612;SDS011;63463;53.586;9.928;2023-04-29T06:42:27;19.60;;;10.93;;
5612;SDS011;63463;53.586;9.928;2023-04-29T06:44:53;17.30;;;11.30;;
5612;SDS011;63463;53.586;9.928;2023-04-29T06:47:19;20.93;;;10.90;;
5612;SDS011;63463;53.586;9.928;2023-04-29T06:49:45;22.47;;;11.97;;
5612;SDS011;63463;53.586;9.928;2023-04-29T06:52:11;17.33;;;11.33;;
5612;SDS011;63463;53.586;9.928;2023-04-29T06:54:38;19.17;;;10.93;;
5612;SDS011;63463;53.586;9.928;2023-04-29T06:57:04;25.47;;;11.87;;
5612;SDS011;63463;53.586;9.928;2023-04-29T06:59:30;21.87;;;11.87;;
5612;SDS011;63463;53.586;9.928;2023-04-29T07:01:56;21.70;;;11.70;;
5612;SDS011;63463;53.586;9.928;2023-04-29T07:04:23;21.50;;;10.60;;
5612;SDS011;63463;53.586;9.928;2023-04-29T07:06:49;20.50;;;11.47;;
5612;SDS011;63463;53.586;9.928;2023-04-29T07:09:15;21.20;;;11.53;;
5612;SDS011;63463;53.586;9.928;2023-04-29T07:11:41;18.73;;;10.50;;
5612;SDS011;63463;53.586;9.928;2023-04-29T07:14:08;23.57;;;10.57;;
5612;SDS011;63463;53.586;9.928;2023-04-29T07:16:37;20.47;;;10.20;;
5612;SDS011;63463;53.586;9.928;2023-04-29T07:19:03;21.33;;;11.13;;
5612;SDS011;63463;53.586;9.928;2023-04-29T07:21:30;14.33;;;10.13;;
5612;SDS011;63463;53.586;9.928;2023-04-29T07:23:59;18.80;;;11.00;;
5612;SDS011;63463;53.586;9.928;2023-04-29T07:26:26;19.70;;;10.07;;
5612;SDS011;63463;53.586;9.928;2023-04-29T07:28:54;15.90;;;10.37;;
5612;SDS011;63463;53.586;9.928;2023-04-29T07:31:21;22.33;;;11.20;;
5612;SDS011;63463;53.586;9.928;2023-04-29T07:34:01;16.00;;;9.83;;
5612;SDS011;63463;53.586;9.928;2023-04-29T07:36:29;22.70;;;10.30;;
5612;SDS011;63463;53.586;9.928;2023-04-29T07:38:59;14.47;;;9.70;;
5612;SDS011;63463;53.586;9.928;2023-04-29T07:41:26;22.80;;;8.73;;
5612;SDS011;63463;53.586;9.928;2023-04-29T07:43:52;14.47;;;9.57;;
5612;SDS011;63463;53.586;9.928;2023-04-29T07:46:21;14.27;;;9.13;;
5612;SDS011;63463;53.586;9.928;2023-04-29T07:49:00;16.10;;;8.70;;
5612;SDS011;63463;53.586;9.928;2023-04-29T07:51:26;16.90;;;8.60;;
5612;SDS011;63463;53.586;9.928;2023-04-29T07:53:53;14.13;;;9.20;;
5612;SDS011;63463;53.586;9.928;2023-04-29T07:56:22;12.20;;;8.40;;
5612;SDS011;63463;53.586;9.928;2023-04-29T07:59:07;16.93;;;8.13;;
5612;SDS011;63463;53.586;9.928;2023-04-29T08:01:37;12.20;;;8.57;;
5612;SDS011;63463;53.586;9.928;2023-04-29T08:04:12;13.30;;;8.40;;
5612;SDS011;63463;53.586;9.928;2023-04-29T08:06:38;12.47;;;8.20;;
5612;SDS011;63463;53.586;9.928;2023-04-29T08:09:06;17.13;;;9.07;;
5612;SDS011;63463;53.586;9.928;2023-04-29T08:11:32;10.20;;;7.47;;
5612;SDS011;63463;53.586;9.928;2023-04-29T08:14:04;10.73;;;7.63;;
5612;SDS011;63463;53.586;9.928;2023-04-29T08:16:37;12.30;;;7.67;;
5612;SDS011;63463;53.586;9.928;2023-04-29T08:19:08;16.30;;;7.67;;
5612;SDS011;63463;53.586;9.928;2023-04-29T08:21:34;10.70;;;7.03;;
5612;SDS011;63463;53.586;9.928;2023-04-29T08:24:01;18.13;;;8.20;;
5612;SDS011;63463;53.586;9.928;2023-04-29T08:26:32;10.27;;;7.87;;
5612;SDS011;63463;53.586;9.928;2023-04-29T08:29:04;15.73;;;8.40;;
5612;SDS011;63463;53.586;9.928;2023-04-29T08:31:33;10.83;;;7.80;;
5612;SDS011;63463;53.586;9.928;2023-04-29T08:33:59;10.47;;;7.57;;
5612;SDS011;63463;53.586;9.928;2023-04-29T08:36:25;14.90;;;8.07;;
5612;SDS011;63463;53.586;9.928;2023-04-29T08:39:05;11.83;;;7.63;;
5612;SDS011;63463;53.586;9.928;2023-04-29T08:41:40;10.60;;;7.67;;
5612;SDS011;63463;53.586;9.928;2023-04-29T08:44:12;11.07;;;7.80;;
5612;SDS011;63463;53.586;9.928;2023-04-29T08:49:34;10.00;;;7.10;;
5612;SDS011;63463;53.586;9.928;2023-04-29T08:52:02;16.30;;;7.80;;
5612;SDS011;63463;53.586;9.928;2023-04-29T08:54:37;13.63;;;7.80;;
5612;SDS011;63463;53.586;9.928;2023-04-29T08:57:12;11.10;;;7.50;;
5612;SDS011;63463;53.586;9.928;2023-04-29T08:59:38;15.40;;;7.67;;
5612;SDS011;63463;53.586;9.928;2023-04-29T09:02:05;13.07;;;7.63;;
5612;SDS011;63463;53.586;9.928;2023-04-29T09:07:20;11.10;;;6.87;;
5612;SDS011;63463;53.586;9.928;2023-04-29T09:09:48;18.13;;;8.13;;
5612;SDS011;63463;53.586;9.928;2023-04-29T09:12:22;12.70;;;7.53;;
5612;SDS011;63463;53.586;9.928;2023-04-29T09:15:00;9.10;;;7.23;;
5612;SDS011;63463;53.586;9.928;2023-04-29T09:17:38;13.83;;;8.10;;
5612;SDS011;63463;53.586;9.928;2023-04-29T09:20:26;11.10;;;7.83;;
5612;SDS011;63463;53.586;9.928;2023-04-29T09:22:59;10.40;;;7.13;;
5612;SDS011;63463;53.586;9.928;2023-04-29T09:25:29;12.07;;;7.37;;
5612;SDS011;63463;53.586;9.928;2023-04-29T09:27:55;12.00;;;7.00;;
5612;SDS011;63463;53.586;9.928;2023-04-29T09:30:22;11.80;;;6.67;;
5612;SDS011;63463;53.586;9.928;2023-04-29T09:33:04;7.60;;;6.40;;
5612;SDS011;63463;53.586;9.928;2023-04-29T09:35:31;12.90;;;7.23;;
5612;SDS011;63463;53.586;9.928;2023-04-29T09:38:10;8.30;;;6.40;;
5612;SDS011;63463;53.586;9.928;2023-04-29T09:40:36;6.13;;;5.53;;
5612;SDS011;63463;53.586;9.928;2023-04-29T09:43:02;16.47;;;6.47;;
5612;SDS011;63463;53.586;9.928;2023-04-29T09:45:35;12.17;;;6.77;;
5612;SDS011;63463;53.586;9.928;2023-04-29T09:48:02;10.83;;;7.07;;
5612;SDS011;63463;53.586;9.928;2023-04-29T09:50:29;9.13;;;6.40;;
5612;SDS011;63463;53.586;9.928;2023-04-29T09:52:55;8.43;;;5.20;;
5612;SDS011;63463;53.586;9.928;2023-04-29T09:56:20;7.00;;;5.80;;
5612;SDS011;63463;53.586;9.928;2023-04-29T09:58:31;8.60;;;5.60;;
5612;SDS011;63463;53.586;9.928;2023-04-29T10:01:16;9.80;;;6.07;;
5612;SDS011;63463;53.586;9.928;2023-04-29T10:03:44;10.00;;;5.63;;
5612;SDS011;63463;53.586;9.928;2023-04-29T10:06:17;10.37;;;6.53;;
5612;SDS011;63463;53.586;9.928;2023-04-29T10:08:49;8.70;;;5.80;;
5612;SDS011;63463;53.586;9.928;2023-04-29T10:11:18;10.17;;;5.43;;
5612;SDS011;63463;53.586;9.928;2023-04-29T10:13:50;10.90;;;5.67;;
5612;SDS011;63463;53.586;9.928;2023-04-29T10:16:35;9.17;;;5.50;;
5612;SDS011;63463;53.586;9.928;2023-04-29T10:19:06;10.37;;;5.90;;
5612;SDS011;63463;53.586;9.928;2023-04-29T10:21:44;7.67;;;6.47;;
5612;SDS011;63463;53.586;9.928;2023-04-29T10:24:11;12.20;;;5.83;;
5612;SDS011;63463;53.586;9.928;2023-04-29T10:26:54;11.83;;;6.57;;
5612;SDS011;63463;53.586;9.928;2023-04-29T10:29:40;8.00;;;5.60;;
5612;SDS011;63463;53.586;9.928;2023-04-29T10:32:27;11.70;;;6.77;;
5612;SDS011;63463;53.586;9.928;2023-04-29T10:34:58;5.97;;;5.03;;
5612;SDS011;63463;53.586;9.928;2023-04-29T10:37:29;11.93;;;6.33;;
5612;SDS011;63463;53.586;9.928;2023-04-29T10:42:35;14.30;;;5.93;;
5612;SDS011;63463;53.586;9.928;2023-04-29T10:53:28;12.83;;;7.17;;
5612;SDS011;63463;53.586;9.928;2023-04-29T10:55:58;11.37;;;5.40;;
5612;SDS011;63463;53.586;9.928;2023-04-29T11:00:59;12.20;;;6.23;;
5612;SDS011;63463;53.586;9.928;2023-04-29T11:09:12;14.40;;;7.43;;
5612;SDS011;63463;53.586;9.928;2023-04-29T11:11:44;13.13;;;6.80;;
5612;SDS011;63463;53.586;9.928;2023-04-29T11:14:11;10.00;;;6.10;;
5612;SDS011;63463;53.586;9.928;2023-04-29T11:16:45;13.93;;;7.40;;
5612;SDS011;63463;53.586;9.928;2023-04-29T11:19:13;11.57;;;7.23;;
5612;SDS011;63463;53.586;9.928;2023-04-29T11:21:39;12.70;;;6.60;;
5612;SDS011;63463;53.586;9.928;2023-04-29T11:24:05;12.73;;;7.37;;
5612;SDS011;63463;53.586;9.928;2023-04-29T11:26:35;8.60;;;5.87;;
5612;SDS011;63463;53.586;9.928;2023-04-29T11:29:01;15.67;;;6.67;;
5612;SDS011;63463;53.586;9.928;2023-04-29T11:31:30;7.33;;;5.53;;
5612;SDS011;63463;53.586;9.928;2023-04-29T11:33:56;12.93;;;6.33;;
5612;SDS011;63463;53.586;9.928;2023-04-29T11:36:24;8.83;;;5.70;;
5612;SDS011;63463;53.586;9.928;2023-04-29T11:38:51;9.30;;;5.80;;
5612;SDS011;63463;53.586;9.928;2023-04-29T11:41:17;7.10;;;5.33;;
5612;SDS011;63463;53.586;9.928;2023-04-29T11:43:47;9.47;;;6.03;;
5612;SDS011;63463;53.586;9.928;2023-04-29T11:46:20;7.40;;;5.20;;
5612;SDS011;63463;53.586;9.928;2023-04-29T11:48:46;10.20;;;5.77;;
5612;SDS011;63463;53.586;9.928;2023-04-29T11:51:13;14.30;;;5.73;;
5612;SDS011;63463;53.586;9.928;2023-04-29T11:53:39;5.83;;;5.27;;
5612;SDS011;63463;53.586;9.928;2023-04-29T11:56:07;11.27;;;6.70;;
5612;SDS011;63463;53.586;9.928;2023-04-29T11:58:34;11.30;;;7.10;;
5612;SDS011;63463;53.586;9.928;2023-04-29T12:01:01;9.10;;;7.37;;
5612;SDS011;63463;53.586;9.928;2023-04-29T12:03:30;9.83;;;7.60;;
5612;SDS011;63463;53.586;9.928;2023-04-29T12:05:56;12.67;;;6.90;;
5612;SDS011;63463;53.586;9.928;2023-04-29T12:08:23;15.33;;;6.07;;
5612;SDS011;63463;53.586;9.928;2023-04-29T12:10:50;8.00;;;5.60;;
5612;SDS011;63463;53.586;9.928;2023-04-29T12:13:17;10.30;;;5.97;;
5612;SDS011;63463;53.586;9.928;2023-04-29T12:15:47;8.67;;;5.93;;
5612;SDS011;63463;53.586;9.928;2023-04-29T12:18:14;9.77;;;5.10;;
5612;SDS011;63463;53.586;9.928;2023-04-29T12:20:42;13.17;;;5.77;;
5612;SDS011;63463;53.586;9.928;2023-04-29T12:23:15;6.30;;;4.90;;
5612;SDS011;63463;53.586;9.928;2023-04-29T12:25:52;6.00;;;4.70;;
5612;SDS011;63463;53.586;9.928;2023-04-29T12:28:20;5.47;;;4.53;;
5612;SDS011;63463;53.586;9.928;2023-04-29T12:30:48;10.33;;;5.23;;
5612;SDS011;63463;53.586;9.928;2023-04-29T12:33:21;12.20;;;5.37;;
5612;SDS011;63463;53.586;9.928;2023-04-29T12:35:48;5.37;;;4.27;;
5612;SDS011;63463;53.586;9.928;2023-04-29T12:38:15;8.67;;;5.50;;
5612;SDS011;63463;53.586;9.928;2023-04-29T12:40:43;14.60;;;4.73;;
5612;SDS011;63463;53.586;9.928;2023-04-29T12:43:09;6.23;;;4.40;;
5612;SDS011;63463;53.586;9.928;2023-04-29T12:45:37;5.57;;;4.37;;
5612;SDS011;63463;53.586;9.928;2023-04-29T12:48:03;9.93;;;5.17;;
5612;SDS011;63463;53.586;9.928;2023-04-29T12:50:34;8.23;;;4.40;;
5612;SDS011;63463;53.586;9.928;2023-04-29T12:53:01;7.97;;;5.20;;
5612;SDS011;63463;53.586;9.928;2023-04-29T12:55:27;9.43;;;5.40;;
5612;SDS011;63463;53.586;9.928;2023-04-29T12:57:54;8.30;;;5.23;;
5612;SDS011;63463;53.586;9.928;2023-04-29T13:00:20;7.70;;;4.93;;
5612;SDS011;63463;53.586;9.928;2023-04-29T13:02:48;5.90;;;4.73;;
5612;SDS011;63463;53.586;9.928;2023-04-29T13:05:19;9.30;;;5.40;;
5612;SDS011;63463;53.586;9.928;2023-04-29T13:07:46;6.07;;;4.53;;
5612;SDS011;63463;53.586;9.928;2023-04-29T13:10:12;9.53;;;4.93;;
5612;SDS011;63463;53.586;9.928;2023-04-29T13:12:39;8.63;;;4.40;;
5612;SDS011;63463;53.586;9.928;2023-04-29T13:15:05;6.33;;;4.87;;
5612;SDS011;63463;53.586;9.928;2023-04-29T13:17:34;6.20;;;4.40;;
5612;SDS011;63463;53.586;9.928;2023-04-29T13:20:13;4.90;;;4.10;;
5612;SDS011;63463;53.586;9.928;2023-04-29T13:22:40;6.50;;;4.70;;
5612;SDS011;63463;53.586;9.928;2023-04-29T13:25:08;6.40;;;4.40;;
5612;SDS011;63463;53.586;9.928;2023-04-29T13:27:35;8.00;;;4.27;;
5612;SDS011;63463;53.586;9.928;2023-04-29T13:30:02;5.87;;;4.03;;
5612;SDS011;63463;53.586;9.928;2023-04-29T13:32:28;8.47;;;3.73;;
5612;SDS011;63463;53.586;9.928;2023-04-29T13:34:54;4.90;;;3.20;;
5612;SDS011;63463;53.586;9.928;2023-04-29T13:37:20;3.97;;;3.33;;
5612;SDS011;63463;53.586;9.928;2023-04-29T13:39:46;9.00;;;4.00;;
5612;SDS011;63463;53.586;9.928;2023-04-29T13:42:12;4.53;;;3.23;;
5612;SDS011;63463;53.586;9.928;2023-04-29T13:44:39;5.30;;;3.70;;
5612;SDS011;63463;53.586;9.928;2023-04-29T13:47:12;6.10;;;2.87;;
5612;SDS011;63463;53.586;9.928;2023-04-29T13:49:39;6.27;;;3.43;;
5612;SDS011;63463;53.586;9.928;2023-04-29T13:52:06;3.30;;;2.93;;
5612;SDS011;63463;53.586;9.928;2023-04-29T13:54:33;3.10;;;2.87;;
5612;SDS011;63463;53.586;9.928;2023-04-29T13:56:59;4.40;;;3.10;;
5612;SDS011;63463;53.586;9.928;2023-04-29T13:59:28;5.47;;;3.00;;
5612;SDS011;63463;53.586;9.928;2023-04-29T14:01:55;6.20;;;2.90;;
5612;SDS011;63463;53.586;9.928;2023-04-29T14:04:21;3.40;;;3.10;;
5612;SDS011;63463;53.586;9.928;2023-04-29T14:06:47;2.97;;;2.87;;
5612;SDS011;63463;53.586;9.928;2023-04-29T14:09:14;3.60;;;2.83;;
5612;SDS011;63463;53.586;9.928;2023-04-29T14:11:41;3.33;;;3.03;;
5612;SDS011;63463;53.586;9.928;2023-04-29T14:14:08;3.53;;;3.27;;
5612;SDS011;63463;53.586;9.928;2023-04-29T14:16:35;6.57;;;3.20;;
5612;SDS011;63463;53.586;9.928;2023-04-29T14:19:01;8.30;;;3.37;;
5612;SDS011;63463;53.586;9.928;2023-04-29T14:21:28;3.43;;;3.03;;
5612;SDS011;63463;53.586;9.928;2023-04-29T14:23:54;3.23;;;3.03;;
5612;SDS011;63463;53.586;9.928;2023-04-29T14:26:24;7.27;;;3.67;;
5612;SDS011;63463;53.586;9.928;2023-04-29T14:29:10;3.03;;;2.83;;
5612;SDS011;63463;53.586;9.928;2023-04-29T14:31:36;4.70;;;2.70;;
5612;SDS011;63463;53.586;9.928;2023-04-29T14:34:04;6.80;;;3.50;;
5612;SDS011;63463;53.586;9.928;2023-04-29T14:36:30;3.40;;;3.10;;
5612;SDS011;63463;53.586;9.928;2023-04-29T14:38:59;3.90;;;3.50;;
5612;SDS011;63463;53.586;9.928;2023-04-29T14:41:26;4.83;;;3.53;;
5612;SDS011;63463;53.586;9.928;2023-04-29T14:43:52;3.90;;;3.50;;
5612;SDS011;63463;53.586;9.928;2023-04-29T14:46:18;3.30;;;3.10;;
5612;SDS011;63463;53.586;9.928;2023-04-29T14:48:46;4.87;;;3.43;;
5612;SDS011;63463;53.586;9.928;2023-04-29T14:51:18;3.37;;;3.07;;
5612;SDS011;63463;53.586;9.928;2023-04-29T14:53:50;14.87;;;3.20;;
5612;SDS011;63463;53.586;9.928;2023-04-29T14:56:17;3.33;;;2.70;;
5612;SDS011;63463;53.586;9.928;2023-04-29T14:58:43;4.00;;;3.60;;
5612;SDS011;63463;53.586;9.928;2023-04-29T15:01:09;3.80;;;3.30;;
5612;SDS011;63463;53.586;9.928;2023-04-29T15:03:35;3.87;;;3.00;;
5612;SDS011;63463;53.586;9.928;2023-04-29T15:06:01;4.80;;;3.20;;
5612;SDS011;63463;53.586;9.928;2023-04-29T15:08:28;3.17;;;2.97;;
5612;SDS011;63463;53.586;9.928;2023-04-29T15:10:54;3.70;;;3.40;;
5612;SDS011;63463;53.586;9.928;2023-04-29T15:13:22;3.43;;;3.13;;
5612;SDS011;63463;53.586;9.928;2023-04-29T15:15:48;3.93;;;3.00;;
5612;SDS011;63463;53.586;9.928;2023-04-29T15:18:14;3.10;;;2.90;;
5612;SDS011;63463;53.586;9.928;2023-04-29T15:20:40;2.93;;;2.73;;
5612;SDS011;63463;53.586;9.928;2023-04-29T15:23:06;5.30;;;3.37;;
5612;SDS011;63463;53.586;9.928;2023-04-29T15:25:32;4.53;;;3.30;;